createdAt,value
2018-09-27T00:00:02.265Z,0.00
2018-09-27T00:01:02.257Z,0.00
2018-09-27T00:02:02.282Z,0.00
2018-09-27T00:03:02.231Z,0.00
2018-09-27T00:04:02.228Z,0.00
2018-09-27T00:05:02.208Z,0.00
2018-09-27T00:06:02.199Z,0.00
2018-09-27T00:07:02.187Z,0.00
2018-09-27T00:08:02.199Z,0.00
2018-09-27T00:09:02.168Z,0.00
2018-09-27T00:10:02.154Z,0.00
2018-09-27T00:11:02.149Z,0.00
2018-09-27T00:12:02.134Z,0.00
2018-09-27T00:13:02.125Z,0.00
2018-09-27T00:14:02.126Z,0.00
2018-09-27T00:15:02.115Z,0.00
2018-09-27T00:16:02.100Z,0.00
2018-09-27T00:17:02.078Z,0.00
2018-09-27T00:18:02.071Z,0.00
2018-09-27T00:19:02.059Z,0.00
2018-09-27T00:20:02.069Z,0.00
2018-09-27T00:21:02.034Z,0.00
2018-09-27T00:22:02.025Z,0.00
2018-09-27T00:23:02.016Z,0.00
2018-09-27T00:24:02.004Z,0.00
2018-09-27T00:25:01.993Z,0.00
2018-09-27T00:26:01.994Z,0.00
2018-09-27T00:27:01.968Z,0.00
2018-09-27T00:28:01.958Z,0.00
2018-09-27T00:29:01.947Z,0.00
2018-09-27T00:30:01.938Z,0.00
2018-09-27T00:31:01.941Z,0.00
2018-09-27T00:32:01.913Z,0.00
2018-09-27T00:33:01.903Z,0.00
2018-09-27T00:34:01.892Z,0.00
2018-09-27T00:35:01.895Z,0.00
2018-09-27T00:36:01.870Z,0.00
2018-09-27T00:37:01.875Z,0.00
2018-09-27T00:38:01.849Z,0.00
2018-09-27T00:39:01.837Z,0.00
2018-09-27T00:40:01.828Z,0.00
2018-09-27T00:41:01.818Z,0.00
2018-09-27T00:42:01.819Z,0.00
2018-09-27T00:43:01.796Z,0.00
2018-09-27T00:44:01.782Z,0.00
2018-09-27T00:45:01.773Z,0.00
2018-09-27T00:46:01.778Z,0.00
2018-09-27T00:47:01.769Z,0.00
2018-09-27T00:48:01.743Z,0.00
2018-09-27T00:49:01.731Z,0.00
2018-09-27T00:50:01.717Z,0.00
2018-09-27T00:51:01.731Z,0.00
2018-09-27T00:52:01.713Z,0.00
2018-09-27T00:53:01.686Z,0.00
2018-09-27T00:54:01.674Z,0.00
2018-09-27T00:55:01.664Z,0.00
2018-09-27T00:56:01.650Z,0.00
2018-09-27T00:57:01.641Z,0.00
2018-09-27T00:58:01.645Z,0.00
2018-09-27T00:59:01.619Z,0.00
2018-09-27T01:00:01.607Z,0.00
2018-09-27T01:01:01.597Z,0.00
2018-09-27T01:02:01.584Z,0.00
2018-09-27T01:03:01.591Z,0.00
2018-09-27T01:04:01.562Z,0.00
2018-09-27T01:05:01.552Z,0.00
2018-09-27T01:06:01.541Z,0.00
2018-09-27T01:07:01.531Z,0.00
2018-09-27T01:08:01.519Z,0.00
2018-09-27T01:09:01.523Z,0.00
2018-09-27T01:10:01.496Z,0.00
2018-09-27T01:11:01.485Z,0.00
2018-09-27T01:12:01.478Z,0.00
2018-09-27T01:13:01.481Z,0.00
2018-09-27T01:14:01.451Z,0.00
2018-09-27T01:15:01.466Z,0.00
2018-09-27T01:16:01.432Z,0.00
2018-09-27T01:17:01.419Z,0.00
2018-09-27T01:18:01.409Z,0.00
2018-09-27T01:19:01.412Z,0.00
2018-09-27T01:20:01.388Z,0.00
2018-09-27T01:21:01.376Z,0.00
2018-09-27T01:22:01.365Z,0.00
2018-09-27T01:23:01.362Z,0.00
2018-09-27T01:24:01.365Z,0.00
2018-09-27T01:25:01.331Z,0.00
2018-09-27T01:26:01.323Z,0.00
2018-09-27T01:27:02.130Z,0.00
2018-09-27T01:28:02.168Z,0.00
2018-09-27T01:29:01.287Z,0.00
2018-09-27T01:30:01.293Z,0.00
2018-09-27T01:31:01.265Z,0.00
2018-09-27T01:32:01.255Z,0.00
2018-09-27T01:33:01.242Z,0.00
2018-09-27T01:34:01.243Z,0.00
2018-09-27T01:35:01.238Z,0.00
2018-09-27T01:36:01.212Z,0.00
2018-09-27T01:37:01.202Z,0.00
2018-09-27T01:38:01.190Z,0.00
2018-09-27T01:39:01.177Z,0.00
2018-09-27T01:40:01.185Z,0.00
2018-09-27T01:41:01.154Z,0.00
2018-09-27T01:42:01.143Z,0.00
2018-09-27T01:43:01.133Z,0.00
2018-09-27T01:44:01.122Z,0.00
2018-09-27T01:45:01.114Z,0.00
2018-09-27T01:46:01.142Z,0.00
2018-09-27T01:47:01.118Z,0.00
2018-09-27T01:48:01.082Z,0.00
2018-09-27T01:49:01.067Z,0.00
2018-09-27T01:50:01.061Z,0.00
2018-09-27T01:51:01.050Z,0.00
2018-09-27T01:52:01.048Z,0.00
2018-09-27T01:53:01.024Z,0.00
2018-09-27T01:54:01.014Z,0.00
2018-09-27T01:55:01.002Z,0.00
2018-09-27T01:56:00.992Z,0.00
2018-09-27T01:57:01.002Z,0.00
2018-09-27T01:58:00.967Z,0.00
2018-09-27T01:59:00.965Z,0.00
2018-09-27T02:00:00.963Z,0.00
2018-09-27T02:01:00.935Z,0.00
2018-09-27T02:02:00.925Z,0.00
2018-09-27T02:03:00.915Z,0.00
2018-09-27T02:04:00.948Z,0.00
2018-09-27T02:05:00.893Z,0.00
2018-09-27T02:06:00.885Z,0.00
2018-09-27T02:07:00.886Z,0.00
2018-09-27T02:08:00.858Z,0.00
2018-09-27T02:09:00.849Z,0.00
2018-09-27T02:10:00.837Z,0.00
2018-09-27T02:11:00.825Z,0.00
2018-09-27T02:12:00.836Z,0.00
2018-09-27T02:13:00.804Z,0.00
2018-09-27T02:14:00.795Z,0.00
2018-09-27T02:15:00.785Z,0.00
2018-09-27T02:16:00.774Z,0.00
2018-09-27T02:17:00.787Z,0.00
2018-09-27T02:18:00.763Z,0.00
2018-09-27T02:19:00.740Z,0.00
2018-09-27T02:20:00.728Z,0.00
2018-09-27T02:21:00.719Z,0.00
2018-09-27T02:22:00.705Z,0.00
2018-09-27T02:23:00.713Z,0.00
2018-09-27T02:24:00.685Z,0.00
2018-09-27T02:25:00.672Z,0.00
2018-09-27T02:26:00.662Z,0.00
2018-09-27T02:27:00.653Z,0.00
2018-09-27T02:28:00.657Z,0.00
2018-09-27T02:29:00.631Z,0.00
2018-09-27T02:30:00.623Z,0.00
2018-09-27T02:31:00.609Z,0.00
2018-09-27T02:32:00.597Z,0.00
2018-09-27T02:33:00.586Z,0.00
2018-09-27T02:34:00.628Z,0.00
2018-09-27T02:35:00.562Z,0.00
2018-09-27T02:36:00.553Z,0.00
2018-09-27T02:37:00.543Z,0.00
2018-09-27T02:38:00.542Z,0.00
2018-09-27T02:39:00.536Z,0.00
2018-09-27T02:40:00.508Z,0.00
2018-09-27T02:41:00.498Z,0.00
2018-09-27T02:42:00.488Z,0.00
2018-09-27T02:43:00.476Z,0.00
2018-09-27T02:44:00.484Z,0.00
2018-09-27T02:45:00.453Z,0.00
2018-09-27T02:46:00.451Z,0.00
2018-09-27T02:47:00.441Z,0.00
2018-09-27T02:48:00.428Z,0.00
2018-09-27T02:49:00.419Z,0.00
2018-09-27T02:50:00.414Z,0.00
2018-09-27T02:51:00.390Z,0.00
2018-09-27T02:52:00.387Z,0.00
2018-09-27T02:53:00.367Z,0.00
2018-09-27T02:54:00.359Z,0.00
2018-09-27T02:55:00.351Z,0.00
2018-09-27T02:56:00.333Z,0.00
2018-09-27T02:57:00.336Z,0.00
2018-09-27T02:58:00.312Z,0.00
2018-09-27T02:59:00.301Z,0.00
2018-09-27T03:00:00.292Z,0.00
2018-09-27T03:01:00.290Z,0.00
2018-09-27T03:02:00.267Z,0.00
2018-09-27T03:03:00.270Z,0.00
2018-09-27T03:04:00.246Z,0.00
2018-09-27T03:05:00.252Z,0.00
2018-09-27T03:06:00.222Z,0.00
2018-09-27T03:07:00.211Z,0.00
2018-09-27T03:08:00.213Z,0.00
2018-09-27T03:09:00.188Z,0.00
2018-09-27T03:10:00.197Z,0.00
2018-09-27T03:11:00.170Z,0.00
2018-09-27T03:12:00.156Z,0.00
2018-09-27T03:13:00.146Z,0.00
2018-09-27T03:14:00.278Z,0.00
2018-09-27T03:15:00.125Z,0.00
2018-09-27T03:16:00.116Z,0.00
2018-09-27T03:17:00.104Z,0.00
2018-09-27T03:18:00.109Z,0.00
2018-09-27T03:19:00.096Z,0.00
2018-09-27T03:20:00.068Z,0.00
2018-09-27T03:21:00.077Z,0.00
2018-09-27T03:22:00.048Z,0.00
2018-09-27T03:23:00.037Z,0.00
2018-09-27T03:24:00.027Z,0.00
2018-09-27T03:25:00.028Z,0.00
2018-09-27T03:26:00.004Z,0.00
2018-09-27T03:26:59.995Z,0.00
2018-09-27T03:27:59.983Z,0.00
2018-09-27T03:29:00.011Z,0.00
2018-09-27T03:29:59.959Z,0.00
2018-09-27T03:30:59.950Z,0.00
2018-09-27T03:31:59.964Z,0.00
2018-09-27T03:32:59.928Z,0.00
2018-09-27T03:33:59.917Z,0.00
2018-09-27T03:34:59.919Z,0.00
2018-09-27T03:35:59.893Z,0.00
2018-09-27T03:36:59.887Z,0.00
2018-09-27T03:37:59.890Z,0.00
2018-09-27T03:38:59.861Z,0.00
2018-09-27T03:39:59.894Z,0.00
2018-09-27T03:40:59.837Z,0.00
2018-09-27T03:41:59.830Z,0.00
2018-09-27T03:42:59.821Z,0.00
2018-09-27T03:43:59.821Z,0.00
2018-09-27T03:44:59.813Z,0.00
2018-09-27T03:45:59.784Z,0.00
2018-09-27T03:46:59.781Z,0.00
2018-09-27T03:47:59.762Z,0.00
2018-09-27T03:48:59.753Z,0.00
2018-09-27T03:49:59.778Z,0.00
2018-09-27T03:50:59.756Z,0.00
2018-09-27T03:51:59.719Z,0.00
2018-09-27T03:52:59.708Z,0.00
2018-09-27T03:53:59.698Z,0.00
2018-09-27T03:54:59.685Z,0.00
2018-09-27T03:55:59.749Z,0.00
2018-09-27T03:56:59.664Z,0.00
2018-09-27T03:57:59.651Z,0.00
2018-09-27T03:58:59.642Z,0.00
2018-09-27T03:59:59.632Z,0.00
2018-09-27T04:00:59.648Z,0.00
2018-09-27T04:01:59.612Z,0.00
2018-09-27T04:02:59.597Z,0.00
2018-09-27T04:03:59.586Z,0.00
2018-09-27T04:04:59.577Z,0.00
2018-09-27T04:05:59.564Z,0.00
2018-09-27T04:06:59.574Z,0.00
2018-09-27T04:07:59.543Z,0.00
2018-09-27T04:08:59.535Z,0.00
2018-09-27T04:09:59.523Z,0.00
2018-09-27T04:10:59.513Z,0.00
2018-09-27T04:11:59.515Z,0.00
2018-09-27T04:12:59.511Z,0.00
2018-09-27T04:13:59.480Z,0.00
2018-09-27T04:14:59.466Z,0.00
2018-09-27T04:15:59.453Z,0.00
2018-09-27T04:16:59.442Z,0.00
2018-09-27T04:17:59.434Z,0.00
2018-09-27T04:18:59.432Z,0.00
2018-09-27T04:19:59.411Z,0.00
2018-09-27T04:20:59.400Z,0.00
2018-09-27T04:21:59.393Z,0.00
2018-09-27T04:22:59.389Z,0.00
2018-09-27T04:23:59.410Z,0.00
2018-09-27T04:24:59.387Z,0.00
2018-09-27T04:25:59.343Z,0.00
2018-09-27T04:26:59.336Z,0.00
2018-09-27T04:27:59.332Z,0.00
2018-09-27T04:28:59.314Z,0.00
2018-09-27T04:29:59.302Z,0.00
2018-09-27T04:30:59.290Z,0.00
2018-09-27T04:31:59.301Z,0.00
2018-09-27T04:32:59.279Z,0.00
2018-09-27T04:33:59.258Z,0.00
2018-09-27T04:34:59.244Z,0.00
2018-09-27T04:35:59.246Z,0.00
2018-09-27T04:36:59.224Z,0.00
2018-09-27T04:37:59.214Z,0.00
2018-09-27T04:38:59.213Z,0.00
2018-09-27T04:39:59.191Z,0.00
2018-09-27T04:40:59.236Z,0.00
2018-09-27T04:41:59.184Z,0.00
2018-09-27T04:42:59.157Z,0.00
2018-09-27T04:43:59.144Z,0.00
2018-09-27T04:44:59.147Z,0.00
2018-09-27T04:45:59.125Z,0.00
2018-09-27T04:46:59.114Z,0.00
2018-09-27T04:47:59.114Z,0.00
2018-09-27T04:48:59.097Z,0.00
2018-09-27T04:49:59.103Z,0.00
2018-09-27T04:50:59.070Z,0.00
2018-09-27T04:51:59.060Z,0.00
2018-09-27T04:52:59.047Z,0.00
2018-09-27T04:53:59.038Z,0.00
2018-09-27T04:54:59.025Z,0.00
2018-09-27T04:55:59.039Z,0.00
2018-09-27T04:56:59.009Z,0.00
2018-09-27T04:57:58.994Z,0.00
2018-09-27T04:58:58.983Z,0.00
2018-09-27T04:59:59.002Z,0.00
2018-09-27T05:00:58.963Z,0.00
2018-09-27T05:01:58.962Z,0.00
2018-09-27T05:02:58.938Z,0.00
2018-09-27T05:03:58.928Z,0.00
2018-09-27T05:04:58.927Z,0.00
2018-09-27T05:05:58.907Z,0.00
2018-09-27T05:06:58.896Z,0.00
2018-09-27T05:07:58.885Z,0.00
2018-09-27T05:08:58.876Z,0.00
2018-09-27T05:09:58.898Z,0.00
2018-09-27T05:10:58.853Z,0.00
2018-09-27T05:11:58.839Z,0.00
2018-09-27T05:12:58.829Z,0.00
2018-09-27T05:13:58.820Z,0.00
2018-09-27T05:14:58.824Z,0.00
2018-09-27T05:15:58.857Z,5.62
2018-09-27T05:16:58.785Z,5.62
2018-09-27T05:17:58.776Z,5.62
2018-09-27T05:18:58.763Z,5.62
2018-09-27T05:19:58.770Z,5.62
2018-09-27T05:20:58.745Z,5.62
2018-09-27T05:21:58.746Z,5.62
2018-09-27T05:22:58.721Z,5.62
2018-09-27T05:23:58.708Z,5.62
2018-09-27T05:24:58.699Z,11.25
2018-09-27T05:25:58.709Z,11.25
2018-09-27T05:26:58.677Z,11.25
2018-09-27T05:27:58.665Z,11.25
2018-09-27T05:28:58.669Z,11.25
2018-09-27T05:29:58.649Z,16.88
2018-09-27T05:30:58.633Z,16.88
2018-09-27T05:31:58.623Z,16.88
2018-09-27T05:32:58.639Z,16.88
2018-09-27T05:33:58.603Z,16.88
2018-09-27T05:34:58.587Z,16.88
2018-09-27T05:35:58.579Z,22.50
2018-09-27T05:36:58.569Z,22.50
2018-09-27T05:37:58.561Z,22.50
2018-09-27T05:38:58.560Z,22.50
2018-09-27T05:39:58.536Z,22.50
2018-09-27T05:40:58.567Z,22.50
2018-09-27T05:41:58.510Z,22.50
2018-09-27T05:42:58.546Z,22.50
2018-09-27T05:43:58.525Z,28.12
2018-09-27T05:44:58.493Z,28.12
2018-09-27T05:45:58.469Z,28.12
2018-09-27T05:46:58.472Z,33.75
2018-09-27T05:47:58.445Z,33.75
2018-09-27T05:48:58.435Z,33.75
2018-09-27T05:49:58.482Z,39.38
2018-09-27T05:50:58.435Z,39.38
2018-09-27T05:51:58.404Z,45.00
2018-09-27T05:52:58.392Z,45.00
2018-09-27T05:53:58.380Z,45.00
2018-09-27T05:54:58.368Z,50.62
2018-09-27T05:55:58.451Z,50.62
2018-09-27T05:56:58.362Z,56.25
2018-09-27T05:57:58.336Z,61.88
2018-09-27T05:58:58.327Z,61.88
2018-09-27T05:59:58.315Z,67.50
2018-09-27T06:00:58.302Z,67.50
2018-09-27T06:01:58.349Z,73.12
2018-09-27T06:02:58.281Z,73.12
2018-09-27T06:03:58.269Z,78.75
2018-09-27T06:04:58.258Z,78.75
2018-09-27T06:05:58.252Z,84.38
2018-09-27T06:06:58.251Z,90.00
2018-09-27T06:07:58.224Z,95.62
2018-09-27T06:08:58.216Z,101.25
2018-09-27T06:09:58.205Z,106.88
2018-09-27T06:10:58.193Z,106.88
2018-09-27T06:11:58.197Z,112.50
2018-09-27T06:12:58.169Z,112.50
2018-09-27T06:13:58.175Z,112.50
2018-09-27T06:14:58.148Z,112.50
2018-09-27T06:15:58.157Z,118.12
2018-09-27T06:16:58.126Z,123.75
2018-09-27T06:17:58.115Z,129.38
2018-09-27T06:18:58.116Z,135.00
2018-09-27T06:19:58.094Z,146.25
2018-09-27T06:20:58.096Z,157.50
2018-09-27T06:21:58.073Z,163.12
2018-09-27T06:22:58.060Z,168.75
2018-09-27T06:23:58.048Z,168.75
2018-09-27T06:24:58.060Z,168.75
2018-09-27T06:25:58.046Z,174.38
2018-09-27T06:26:58.043Z,174.38
2018-09-27T06:27:58.005Z,174.38
2018-09-27T06:28:57.995Z,163.12
2018-09-27T06:29:57.982Z,163.12
2018-09-27T06:30:57.986Z,185.62
2018-09-27T06:31:57.963Z,202.50
2018-09-27T06:32:57.950Z,208.12
2018-09-27T06:33:57.940Z,213.75
2018-09-27T06:34:57.962Z,225.00
2018-09-27T06:35:57.935Z,241.88
2018-09-27T06:36:57.906Z,253.12
2018-09-27T06:37:57.896Z,275.62
2018-09-27T06:38:57.885Z,281.25
2018-09-27T06:39:57.873Z,286.88
2018-09-27T06:40:57.876Z,286.88
2018-09-27T06:41:57.850Z,292.50
2018-09-27T06:42:57.841Z,303.75
2018-09-27T06:43:57.828Z,315.00
2018-09-27T06:44:57.819Z,326.25
2018-09-27T06:45:57.823Z,337.50
2018-09-27T06:46:57.797Z,348.75
2018-09-27T06:47:57.785Z,348.75
2018-09-27T06:48:57.775Z,360.00
2018-09-27T06:49:57.764Z,371.25
2018-09-27T06:50:57.765Z,365.62
2018-09-27T06:51:57.779Z,365.62
2018-09-27T06:52:57.730Z,354.38
2018-09-27T06:53:57.717Z,354.38
2018-09-27T06:54:57.806Z,360.00
2018-09-27T06:55:57.901Z,365.62
2018-09-27T06:56:57.700Z,376.88
2018-09-27T06:57:57.709Z,388.12
2018-09-27T06:58:57.663Z,388.12
2018-09-27T06:59:57.656Z,365.62
2018-09-27T07:00:57.725Z,343.12
2018-09-27T07:01:57.629Z,331.88
2018-09-27T07:02:57.617Z,331.88
2018-09-27T07:03:57.616Z,343.12
2018-09-27T07:04:57.652Z,360.00
2018-09-27T07:05:57.600Z,365.62
2018-09-27T07:06:57.576Z,382.50
2018-09-27T07:07:57.580Z,382.50
2018-09-27T07:08:57.550Z,388.12
2018-09-27T07:09:57.540Z,393.75
2018-09-27T07:10:57.529Z,399.38
2018-09-27T07:11:57.586Z,405.00
2018-09-27T07:12:57.509Z,405.00
2018-09-27T07:13:57.496Z,405.00
2018-09-27T07:14:57.484Z,410.62
2018-09-27T07:15:57.475Z,433.12
2018-09-27T07:16:57.464Z,444.38
2018-09-27T07:17:57.465Z,438.75
2018-09-27T07:18:57.443Z,427.50
2018-09-27T07:19:57.433Z,433.12
2018-09-27T07:20:57.432Z,444.38
2018-09-27T07:21:57.410Z,461.25
2018-09-27T07:22:57.399Z,478.12
2018-09-27T07:23:57.386Z,489.38
2018-09-27T07:24:57.402Z,500.62
2018-09-27T07:25:57.367Z,523.12
2018-09-27T07:26:57.401Z,540.00
2018-09-27T07:27:57.371Z,534.38
2018-09-27T07:28:57.333Z,528.75
2018-09-27T07:29:57.341Z,511.88
2018-09-27T07:30:57.365Z,500.62
2018-09-27T07:31:57.304Z,495.00
2018-09-27T07:32:57.289Z,506.25
2018-09-27T07:33:57.295Z,511.88
2018-09-27T07:34:57.269Z,523.12
2018-09-27T07:35:57.277Z,523.12
2018-09-27T07:36:57.246Z,534.38
2018-09-27T07:37:57.236Z,556.88
2018-09-27T07:38:57.238Z,579.38
2018-09-27T07:39:57.213Z,585.00
2018-09-27T07:40:57.202Z,585.00
2018-09-27T07:41:57.191Z,585.00
2018-09-27T07:42:57.179Z,590.62
2018-09-27T07:43:57.186Z,607.50
2018-09-27T07:44:57.158Z,646.88
2018-09-27T07:45:57.153Z,613.12
2018-09-27T07:46:57.134Z,630.00
2018-09-27T07:47:57.120Z,624.38
2018-09-27T07:48:57.111Z,630.00
2018-09-27T07:49:57.116Z,658.12
2018-09-27T07:50:57.104Z,658.12
2018-09-27T07:51:57.084Z,675.00
2018-09-27T07:52:57.066Z,691.88
2018-09-27T07:53:57.056Z,691.88
2018-09-27T07:54:57.071Z,680.62
2018-09-27T07:55:57.053Z,680.62
2018-09-27T07:56:57.024Z,736.88
2018-09-27T07:57:57.012Z,725.62
2018-09-27T07:58:56.999Z,714.38
2018-09-27T07:59:56.990Z,708.75
2018-09-27T08:00:56.985Z,736.88
2018-09-27T08:01:56.980Z,776.25
2018-09-27T08:02:57.066Z,770.62
2018-09-27T08:03:56.947Z,770.62
2018-09-27T08:04:56.938Z,810.00
2018-09-27T08:05:56.923Z,838.12
2018-09-27T08:06:56.927Z,928.12
2018-09-27T08:07:56.936Z,973.12
2018-09-27T08:08:56.891Z,1063.12
2018-09-27T08:09:56.878Z,894.38
2018-09-27T08:10:56.932Z,1035.00
2018-09-27T08:11:56.888Z,1068.75
2018-09-27T08:12:56.847Z,905.62
2018-09-27T08:13:56.851Z,916.88
2018-09-27T08:14:56.822Z,1057.50
2018-09-27T08:15:56.812Z,900.00
2018-09-27T08:16:56.880Z,855.00
2018-09-27T08:17:56.809Z,838.12
2018-09-27T08:18:56.798Z,838.12
2018-09-27T08:19:56.795Z,956.25
2018-09-27T08:20:56.838Z,928.12
2018-09-27T08:21:56.747Z,973.12
2018-09-27T08:22:56.757Z,1001.25
2018-09-27T08:23:56.750Z,1023.75
2018-09-27T08:24:56.731Z,967.50
2018-09-27T08:25:56.704Z,888.75
2018-09-27T08:26:56.693Z,855.00
2018-09-27T08:27:56.685Z,877.50
2018-09-27T08:28:56.672Z,956.25
2018-09-27T08:29:56.676Z,922.50
2018-09-27T08:30:56.772Z,1068.75
2018-09-27T08:31:56.642Z,1057.50
2018-09-27T08:32:56.629Z,1085.62
2018-09-27T08:33:56.618Z,1125.00
2018-09-27T08:34:56.607Z,1170.00
2018-09-27T08:35:56.616Z,1659.38
2018-09-27T08:36:56.612Z,1175.62
2018-09-27T08:37:56.600Z,1243.12
2018-09-27T08:38:56.563Z,1096.88
2018-09-27T08:39:56.552Z,1220.62
2018-09-27T08:40:56.541Z,1192.50
2018-09-27T08:41:56.530Z,1203.75
2018-09-27T08:42:56.537Z,1350.00
2018-09-27T08:43:56.511Z,1760.62
2018-09-27T08:44:56.658Z,1327.50
2018-09-27T08:45:56.547Z,1861.88
2018-09-27T08:46:56.477Z,1816.88
2018-09-27T08:47:56.466Z,1811.25
2018-09-27T08:48:56.470Z,1811.25
2018-09-27T08:49:56.444Z,1861.88
2018-09-27T08:50:56.431Z,1845.00
2018-09-27T08:51:56.425Z,1828.12
2018-09-27T08:52:56.412Z,1895.62
2018-09-27T08:53:56.415Z,1918.12
2018-09-27T08:54:56.388Z,1867.50
2018-09-27T08:55:56.498Z,1918.12
2018-09-27T08:56:56.367Z,1951.88
2018-09-27T08:57:56.357Z,1929.38
2018-09-27T08:58:56.389Z,1974.38
2018-09-27T08:59:56.334Z,1985.62
2018-09-27T09:00:56.323Z,1991.25
2018-09-27T09:01:56.313Z,1980.00
2018-09-27T09:02:56.301Z,1985.62
2018-09-27T09:03:56.360Z,2019.38
2018-09-27T09:04:56.299Z,2041.88
2018-09-27T09:05:56.273Z,2086.88
2018-09-27T09:06:56.260Z,2120.62
2018-09-27T09:07:56.251Z,2120.62
2018-09-27T09:08:56.237Z,2120.62
2018-09-27T09:09:56.225Z,2092.50
2018-09-27T09:10:56.235Z,2126.25
2018-09-27T09:11:56.255Z,2160.00
2018-09-27T09:12:56.190Z,2188.12
2018-09-27T09:13:56.182Z,2199.38
2018-09-27T09:14:56.169Z,2221.88
2018-09-27T09:15:56.170Z,2289.38
2018-09-27T09:16:56.147Z,2233.12
2018-09-27T09:17:56.135Z,2255.62
2018-09-27T09:18:56.126Z,2323.12
2018-09-27T09:19:56.115Z,2216.25
2018-09-27T09:20:56.138Z,2171.25
2018-09-27T09:21:56.091Z,2233.12
2018-09-27T09:22:56.081Z,2283.75
2018-09-27T09:23:56.074Z,2396.25
2018-09-27T09:24:56.061Z,2497.50
2018-09-27T09:25:56.087Z,2441.25
2018-09-27T09:26:56.054Z,2430.00
2018-09-27T09:27:56.030Z,2430.00
2018-09-27T09:28:56.020Z,2452.50
2018-09-27T09:29:56.047Z,2469.38
2018-09-27T09:30:56.043Z,2430.00
2018-09-27T09:31:56.009Z,2401.88
2018-09-27T09:32:55.977Z,2385.00
2018-09-27T09:33:55.981Z,2396.25
2018-09-27T09:34:55.955Z,2441.25
2018-09-27T09:35:56.003Z,2430.00
2018-09-27T09:36:55.946Z,2435.62
2018-09-27T09:37:55.924Z,2446.88
2018-09-27T09:38:55.925Z,2452.50
2018-09-27T09:39:55.902Z,2548.12
2018-09-27T09:40:55.889Z,2587.50
2018-09-27T09:41:55.881Z,2565.00
2018-09-27T09:42:55.869Z,2626.88
2018-09-27T09:43:55.875Z,2643.75
2018-09-27T09:44:55.845Z,2531.25
2018-09-27T09:45:55.837Z,2514.38
2018-09-27T09:46:55.827Z,2525.62
2018-09-27T09:47:55.817Z,2559.38
2018-09-27T09:48:55.821Z,2626.88
2018-09-27T09:49:55.867Z,2610.00
2018-09-27T09:50:55.783Z,2615.62
2018-09-27T09:51:55.772Z,2621.25
2018-09-27T09:52:55.761Z,2587.50
2018-09-27T09:53:55.765Z,2536.88
2018-09-27T09:54:55.739Z,2536.88
2018-09-27T09:55:55.731Z,2643.75
2018-09-27T09:56:55.732Z,2598.75
2018-09-27T09:57:55.725Z,2593.12
2018-09-27T09:58:55.701Z,2593.12
2018-09-27T09:59:55.728Z,2576.25
2018-09-27T10:00:55.682Z,2632.50
2018-09-27T10:01:55.667Z,2576.25
2018-09-27T10:02:55.657Z,2553.75
2018-09-27T10:03:55.644Z,2581.88
2018-09-27T10:04:55.634Z,2542.50
2018-09-27T10:05:55.644Z,2548.12
2018-09-27T10:06:55.613Z,2750.62
2018-09-27T10:07:55.603Z,2716.88
2018-09-27T10:08:55.653Z,2643.75
2018-09-27T10:09:55.583Z,2621.25
2018-09-27T10:10:55.569Z,2666.25
2018-09-27T10:11:55.581Z,2671.88
2018-09-27T10:12:55.552Z,2728.12
2018-09-27T10:13:55.537Z,2806.88
2018-09-27T10:14:55.568Z,2784.38
2018-09-27T10:15:55.529Z,2818.12
2018-09-27T10:16:55.516Z,2486.25
2018-09-27T10:17:55.495Z,2452.50
2018-09-27T10:18:55.484Z,2790.00
2018-09-27T10:19:55.486Z,2835.00
2018-09-27T10:20:55.465Z,2761.88
2018-09-27T10:21:55.526Z,2587.50
2018-09-27T10:22:55.444Z,2452.50
2018-09-27T10:23:55.430Z,2486.25
2018-09-27T10:24:55.439Z,2581.88
2018-09-27T10:25:55.408Z,2401.88
2018-09-27T10:26:55.398Z,2306.25
2018-09-27T10:27:55.392Z,2587.50
2018-09-27T10:28:55.381Z,2773.12
2018-09-27T10:29:55.386Z,2981.25
2018-09-27T10:30:55.356Z,2818.12
2018-09-27T10:31:55.345Z,2289.38
2018-09-27T10:32:55.338Z,2525.62
2018-09-27T10:33:55.324Z,2790.00
2018-09-27T10:34:55.316Z,2767.50
2018-09-27T10:35:55.318Z,2840.62
2018-09-27T10:36:55.299Z,2846.25
2018-09-27T10:37:55.281Z,2851.88
2018-09-27T10:38:55.275Z,2840.62
2018-09-27T10:39:55.279Z,2806.88
2018-09-27T10:40:55.250Z,2739.38
2018-09-27T10:41:55.239Z,2829.38
2018-09-27T10:42:55.228Z,2784.38
2018-09-27T10:43:55.225Z,2750.62
2018-09-27T10:44:55.246Z,2649.38
2018-09-27T10:45:55.210Z,2756.25
2018-09-27T10:46:55.186Z,2840.62
2018-09-27T10:47:55.177Z,2857.50
2018-09-27T10:48:55.167Z,2801.25
2018-09-27T10:49:55.153Z,2767.50
2018-09-27T10:50:55.159Z,2700.00
2018-09-27T10:51:55.133Z,2761.88
2018-09-27T10:52:55.122Z,2891.25
2018-09-27T10:53:55.120Z,2846.25
2018-09-27T10:54:55.100Z,2829.38
2018-09-27T10:55:55.150Z,2773.12
2018-09-27T10:56:55.083Z,2773.12
2018-09-27T10:57:55.085Z,2778.75
2018-09-27T10:58:55.061Z,2829.38
2018-09-27T10:59:55.055Z,2801.25
2018-09-27T11:00:55.038Z,2694.38
2018-09-27T11:01:55.031Z,2615.62
2018-09-27T11:02:55.083Z,2671.88
2018-09-27T11:03:55.017Z,2694.38
2018-09-27T11:04:54.995Z,2711.25
2018-09-27T11:05:54.985Z,2908.12
2018-09-27T11:06:54.991Z,2851.88
2018-09-27T11:07:54.966Z,2818.12
2018-09-27T11:08:54.974Z,2818.12
2018-09-27T11:09:54.942Z,2773.12
2018-09-27T11:10:54.940Z,2694.38
2018-09-27T11:11:54.921Z,2778.75
2018-09-27T11:12:54.911Z,2840.62
2018-09-27T11:13:54.900Z,2818.12
2018-09-27T11:14:54.915Z,2812.50
2018-09-27T11:15:54.878Z,2874.38
2018-09-27T11:16:54.879Z,2851.88
2018-09-27T11:17:54.858Z,2683.12
2018-09-27T11:18:54.848Z,2745.00
2018-09-27T11:19:54.838Z,2812.50
2018-09-27T11:20:54.842Z,2694.38
2018-09-27T11:21:54.915Z,2688.75
2018-09-27T11:22:54.809Z,2581.88
2018-09-27T11:23:54.797Z,2508.75
2018-09-27T11:24:54.787Z,2446.88
2018-09-27T11:25:54.776Z,2604.38
2018-09-27T11:26:54.762Z,2643.75
2018-09-27T11:27:54.768Z,2649.38
2018-09-27T11:28:54.768Z,2671.88
2018-09-27T11:29:54.735Z,2621.25
2018-09-27T11:30:54.724Z,2660.62
2018-09-27T11:31:54.726Z,2716.88
2018-09-27T11:32:54.753Z,2784.38
2018-09-27T11:33:54.704Z,2666.25
2018-09-27T11:34:54.681Z,2520.00
2018-09-27T11:35:54.669Z,2626.88
2018-09-27T11:36:54.660Z,2728.12
2018-09-27T11:37:54.669Z,2655.00
2018-09-27T11:38:54.640Z,2649.38
2018-09-27T11:39:54.629Z,2773.12
2018-09-27T11:40:54.615Z,2778.75
2018-09-27T11:41:54.719Z,2823.75
2018-09-27T11:42:54.652Z,2745.00
2018-09-27T11:43:54.694Z,2716.88
2018-09-27T11:44:54.603Z,2795.62
2018-09-27T11:45:54.563Z,2716.88
2018-09-27T11:46:54.555Z,2553.75
2018-09-27T11:47:54.560Z,2700.00
2018-09-27T11:48:54.608Z,2801.25
2018-09-27T11:49:54.661Z,2660.62
2018-09-27T11:50:54.515Z,2666.25
2018-09-27T11:51:54.500Z,2700.00
2018-09-27T11:52:54.492Z,2722.50
2018-09-27T11:53:54.481Z,2705.62
2018-09-27T11:54:54.543Z,2812.50
2018-09-27T11:55:54.470Z,2896.88
2018-09-27T11:56:54.452Z,2784.38
2018-09-27T11:57:54.440Z,2722.50
2018-09-27T11:58:54.455Z,2761.88
2018-09-27T11:59:54.454Z,2790.00
2018-09-27T12:00:54.406Z,2700.00
2018-09-27T12:01:54.420Z,2761.88
2018-09-27T12:02:54.386Z,2846.25
2018-09-27T12:03:54.374Z,2857.50
2018-09-27T12:04:54.366Z,2806.88
2018-09-27T12:05:54.386Z,2694.38
2018-09-27T12:06:54.342Z,2733.75
2018-09-27T12:07:54.332Z,2733.75
2018-09-27T12:08:54.324Z,2750.62
2018-09-27T12:09:54.311Z,2801.25
2018-09-27T12:10:54.342Z,2722.50
2018-09-27T12:11:54.352Z,2694.38
2018-09-27T12:12:54.279Z,2671.88
2018-09-27T12:13:54.271Z,2638.12
2018-09-27T12:14:54.261Z,2565.00
2018-09-27T12:15:54.248Z,2705.62
2018-09-27T12:16:54.252Z,2750.62
2018-09-27T12:17:54.226Z,2705.62
2018-09-27T12:18:54.237Z,2604.38
2018-09-27T12:19:54.219Z,2581.88
2018-09-27T12:20:54.203Z,2570.62
2018-09-27T12:21:54.189Z,2610.00
2018-09-27T12:22:54.232Z,2688.75
2018-09-27T12:23:54.180Z,2610.00
2018-09-27T12:24:54.154Z,2486.25
2018-09-27T12:25:54.144Z,2632.50
2018-09-27T12:26:54.149Z,2638.12
2018-09-27T12:27:54.124Z,2559.38
2018-09-27T12:28:54.112Z,2632.50
2018-09-27T12:29:54.141Z,2677.50
2018-09-27T12:30:54.127Z,2621.25
2018-09-27T12:31:54.081Z,2576.25
2018-09-27T12:32:54.072Z,2581.88
2018-09-27T12:33:54.064Z,2587.50
2018-09-27T12:34:54.050Z,2565.00
2018-09-27T12:35:54.054Z,2486.25
2018-09-27T12:36:54.028Z,2407.50
2018-09-27T12:37:54.019Z,2435.62
2018-09-27T12:38:54.060Z,2475.00
2018-09-27T12:39:54.013Z,2480.62
2018-09-27T12:40:53.988Z,2430.00
2018-09-27T12:41:54.066Z,2345.62